KGRF/GRF METAR and TAF weather

Enter ICAO airport designator
Station Type Date Time Source
KGRF METAR 2021/03/08 14:58 UTC NOAA

KGRF 081458Z 00000KT 10SM FEW006 M03/M03 A3000 RMK AO2A SLP166 T10311031 57016 $


Station Type Date Time Source
KGRF Decoded METAR 2021/03/08 14:58 UTC NOAA

Fort Lewis / Gray U. S. Army Airfield, WA, United States (KGRF) 47-07N 122-33W 87M
Mar 08, 2021 - 09:58 AM EST / 2021.03.08 1458 UTC
Wind: Calm:0
Visibility: 10 mile(s):0
Sky conditions: mostly clear
Temperature: 26.4 F (-3.1 C)
Dew Point: 26.4 F (-3.1 C)
Relative Humidity: 100%
Pressure (altimeter): 30 in. Hg (1015 hPa)
Pressure tendency: 0.05 inches (1.6 hPa) lower than three hours ago
ob: KGRF 081458Z 00000KT 10SM FEW006 M03/M03 A3000 RMK AO2A SLP166 T10311031 57016
cycle: 15

Station Type Date Time Source
KGRF TAF 2021/03/08 13:15 UTC NOAA

TAF KGRF 081300Z 0813/0919 15006KT 9999 FEW040 QNH3015INS
BECMG 0820/0821 VRB06KT 9999 BKN050 620509 QNH2994INS
BECMG 0822/0823 18007KT 9000 -SHRA BKN030 620309 QNH2996INS
BECMG 0905/0906 18005KT 9999 NSW SCT030 620308 QNH2995INS
BECMG 0911/0912 VRB05KT 9000 -SHRA BKN030 620308 QNH2995INS TX07/0822Z TNM03/0815Z

Example: see airport list